Aviation Digital Data Service (ADDS)

Output produced by METARs form (0658 UTC 18 December 2017)
found at http://aviationweather.gov/adds/metars/
 
KRME 180541Z 1806/1906 12005KT 5SM -SN BR OVC025 
     TEMPO 1807/1811 2SM -SN BR OVC012 
     FM181100 12005KT 3SM -SN BR OVC012 
     FM181400 13007KT P6SM -RASN OVC009 
     FM181900 13005KT 4SM -RA BR OVC009 
     FM190300 23005KT 5SM BR OVC007